sensor_id;sensor_type;location;lat;lon;timestamp;P1;durP1;ratioP1;P2;durP2;ratioP2
46463;SDS011;32161;48.148;-1.554;2023-03-01T00:01:12;19.08;;;15.82;;
46463;SDS011;32161;48.148;-1.554;2023-03-01T00:03:43;20.60;;;16.52;;
46463;SDS011;32161;48.148;-1.554;2023-03-01T00:06:10;21.38;;;16.23;;
46463;SDS011;32161;48.148;-1.554;2023-03-01T00:08:38;22.33;;;16.38;;
46463;SDS011;32161;48.148;-1.554;2023-03-01T00:11:07;20.75;;;16.25;;
46463;SDS011;32161;48.148;-1.554;2023-03-01T00:13:39;22.02;;;16.42;;
46463;SDS011;32161;48.148;-1.554;2023-03-01T00:16:09;22.05;;;16.65;;
46463;SDS011;32161;48.148;-1.554;2023-03-01T00:21:08;19.02;;;15.50;;
46463;SDS011;32161;48.148;-1.554;2023-03-01T00:23:37;21.65;;;16.55;;
46463;SDS011;32161;48.148;-1.554;2023-03-01T00:26:05;19.48;;;15.02;;
46463;SDS011;32161;48.148;-1.554;2023-03-01T00:28:35;25.02;;;16.85;;
46463;SDS011;32161;48.148;-1.554;2023-03-01T00:31:03;22.45;;;17.35;;
46463;SDS011;32161;48.148;-1.554;2023-03-01T00:33:33;21.55;;;16.67;;
46463;SDS011;32161;48.148;-1.554;2023-03-01T00:36:02;25.65;;;17.83;;
46463;SDS011;32161;48.148;-1.554;2023-03-01T00:38:30;21.73;;;16.05;;
46463;SDS011;32161;48.148;-1.554;2023-03-01T00:41:03;22.00;;;16.95;;
46463;SDS011;32161;48.148;-1.554;2023-03-01T00:43:31;22.10;;;17.00;;
46463;SDS011;32161;48.148;-1.554;2023-03-01T00:46:01;23.95;;;17.33;;
46463;SDS011;32161;48.148;-1.554;2023-03-01T00:48:31;19.73;;;15.95;;
46463;SDS011;32161;48.148;-1.554;2023-03-01T00:51:05;18.73;;;15.88;;
46463;SDS011;32161;48.148;-1.554;2023-03-01T00:53:34;20.20;;;16.25;;
46463;SDS011;32161;48.148;-1.554;2023-03-01T00:56:03;20.23;;;15.98;;
46463;SDS011;32161;48.148;-1.554;2023-03-01T00:58:33;22.83;;;16.27;;
46463;SDS011;32161;48.148;-1.554;2023-03-01T01:01:06;19.27;;;15.75;;
46463;SDS011;32161;48.148;-1.554;2023-03-01T01:03:42;23.95;;;17.38;;
46463;SDS011;32161;48.148;-1.554;2023-03-01T01:06:16;20.85;;;15.90;;
46463;SDS011;32161;48.148;-1.554;2023-03-01T01:08:46;23.25;;;15.63;;
46463;SDS011;32161;48.148;-1.554;2023-03-01T01:11:15;19.13;;;15.23;;
46463;SDS011;32161;48.148;-1.554;2023-03-01T01:13:44;18.88;;;15.68;;
46463;SDS011;32161;48.148;-1.554;2023-03-01T01:16:13;19.42;;;15.90;;
46463;SDS011;32161;48.148;-1.554;2023-03-01T01:18:41;18.70;;;15.73;;
46463;SDS011;32161;48.148;-1.554;2023-03-01T01:21:10;18.42;;;14.93;;
46463;SDS011;32161;48.148;-1.554;2023-03-01T01:23:43;19.77;;;15.80;;
46463;SDS011;32161;48.148;-1.554;2023-03-01T01:26:13;20.58;;;15.55;;
46463;SDS011;32161;48.148;-1.554;2023-03-01T01:28:43;17.37;;;14.33;;
46463;SDS011;32161;48.148;-1.554;2023-03-01T01:31:11;20.73;;;15.80;;
46463;SDS011;32161;48.148;-1.554;2023-03-01T01:33:39;20.17;;;15.07;;
46463;SDS011;32161;48.148;-1.554;2023-03-01T01:36:07;19.33;;;15.32;;
46463;SDS011;32161;48.148;-1.554;2023-03-01T01:38:36;19.20;;;14.40;;
46463;SDS011;32161;48.148;-1.554;2023-03-01T01:41:06;18.85;;;14.00;;
46463;SDS011;32161;48.148;-1.554;2023-03-01T01:43:34;19.02;;;14.38;;
46463;SDS011;32161;48.148;-1.554;2023-03-01T01:46:06;18.38;;;15.02;;
46463;SDS011;32161;48.148;-1.554;2023-03-01T01:48:46;19.73;;;15.07;;
46463;SDS011;32161;48.148;-1.554;2023-03-01T01:51:19;20.13;;;14.60;;
46463;SDS011;32161;48.148;-1.554;2023-03-01T01:54:05;18.45;;;14.48;;
46463;SDS011;32161;48.148;-1.554;2023-03-01T01:56:40;19.42;;;14.77;;
46463;SDS011;32161;48.148;-1.554;2023-03-01T01:59:12;19.00;;;14.80;;
46463;SDS011;32161;48.148;-1.554;2023-03-01T02:01:41;16.73;;;14.57;;
46463;SDS011;32161;48.148;-1.554;2023-03-01T02:04:10;21.45;;;15.63;;
46463;SDS011;32161;48.148;-1.554;2023-03-01T02:06:39;19.35;;;14.75;;
46463;SDS011;32161;48.148;-1.554;2023-03-01T02:09:15;19.73;;;14.95;;
46463;SDS011;32161;48.148;-1.554;2023-03-01T02:11:46;20.30;;;15.10;;
46463;SDS011;32161;48.148;-1.554;2023-03-01T02:14:14;17.52;;;14.02;;
46463;SDS011;32161;48.148;-1.554;2023-03-01T02:16:42;19.45;;;14.40;;
46463;SDS011;32161;48.148;-1.554;2023-03-01T02:19:13;20.40;;;15.18;;
46463;SDS011;32161;48.148;-1.554;2023-03-01T02:21:55;18.98;;;13.80;;
46463;SDS011;32161;48.148;-1.554;2023-03-01T02:24:35;23.95;;;14.90;;
46463;SDS011;32161;48.148;-1.554;2023-03-01T02:27:13;19.52;;;13.63;;
46463;SDS011;32161;48.148;-1.554;2023-03-01T02:29:43;19.63;;;14.93;;
46463;SDS011;32161;48.148;-1.554;2023-03-01T02:32:11;18.88;;;13.50;;
46463;SDS011;32161;48.148;-1.554;2023-03-01T02:34:40;20.40;;;15.10;;
46463;SDS011;32161;48.148;-1.554;2023-03-01T02:37:09;18.58;;;14.63;;
46463;SDS011;32161;48.148;-1.554;2023-03-01T02:39:46;15.57;;;13.18;;
46463;SDS011;32161;48.148;-1.554;2023-03-01T02:42:18;21.33;;;14.25;;
46463;SDS011;32161;48.148;-1.554;2023-03-01T02:44:53;16.40;;;13.65;;
46463;SDS011;32161;48.148;-1.554;2023-03-01T02:47:21;16.42;;;13.80;;
46463;SDS011;32161;48.148;-1.554;2023-03-01T02:49:48;20.42;;;13.68;;
46463;SDS011;32161;48.148;-1.554;2023-03-01T02:55:12;17.42;;;13.20;;
46463;SDS011;32161;48.148;-1.554;2023-03-01T02:57:43;17.92;;;14.10;;
46463;SDS011;32161;48.148;-1.554;2023-03-01T03:00:18;19.02;;;13.65;;
46463;SDS011;32161;48.148;-1.554;2023-03-01T03:02:51;21.05;;;14.38;;
46463;SDS011;32161;48.148;-1.554;2023-03-01T03:05:23;19.58;;;13.57;;
46463;SDS011;32161;48.148;-1.554;2023-03-01T03:07:54;15.43;;;12.45;;
46463;SDS011;32161;48.148;-1.554;2023-03-01T03:10:24;17.17;;;13.68;;
46463;SDS011;32161;48.148;-1.554;2023-03-01T03:12:55;16.45;;;13.45;;
46463;SDS011;32161;48.148;-1.554;2023-03-01T03:15:26;17.67;;;13.80;;
46463;SDS011;32161;48.148;-1.554;2023-03-01T03:17:55;15.02;;;12.10;;
46463;SDS011;32161;48.148;-1.554;2023-03-01T03:20:25;16.73;;;13.35;;
46463;SDS011;32161;48.148;-1.554;2023-03-01T03:22:55;16.52;;;12.75;;
46463;SDS011;32161;48.148;-1.554;2023-03-01T03:25:24;14.02;;;12.43;;
46463;SDS011;32161;48.148;-1.554;2023-03-01T03:27:55;14.38;;;12.15;;
46463;SDS011;32161;48.148;-1.554;2023-03-01T03:30:24;15.07;;;12.38;;
46463;SDS011;32161;48.148;-1.554;2023-03-01T03:32:56;13.32;;;11.50;;
46463;SDS011;32161;48.148;-1.554;2023-03-01T03:35:26;15.63;;;11.50;;
46463;SDS011;32161;48.148;-1.554;2023-03-01T03:37:56;16.25;;;12.23;;
46463;SDS011;32161;48.148;-1.554;2023-03-01T03:40:29;18.92;;;13.15;;
46463;SDS011;32161;48.148;-1.554;2023-03-01T03:42:59;15.63;;;12.10;;
46463;SDS011;32161;48.148;-1.554;2023-03-01T03:45:29;16.90;;;12.55;;
46463;SDS011;32161;48.148;-1.554;2023-03-01T03:47:58;15.93;;;13.80;;
46463;SDS011;32161;48.148;-1.554;2023-03-01T03:50:26;18.63;;;12.25;;
46463;SDS011;32161;48.148;-1.554;2023-03-01T03:52:54;15.05;;;12.02;;
46463;SDS011;32161;48.148;-1.554;2023-03-01T03:55:21;16.98;;;12.18;;
46463;SDS011;32161;48.148;-1.554;2023-03-01T03:57:53;16.92;;;13.38;;
46463;SDS011;32161;48.148;-1.554;2023-03-01T04:00:23;16.02;;;12.45;;
46463;SDS011;32161;48.148;-1.554;2023-03-01T04:02:52;18.67;;;13.18;;
46463;SDS011;32161;48.148;-1.554;2023-03-01T04:05:21;17.47;;;12.77;;
46463;SDS011;32161;48.148;-1.554;2023-03-01T04:07:49;15.05;;;11.85;;
46463;SDS011;32161;48.148;-1.554;2023-03-01T04:10:26;15.57;;;12.50;;
46463;SDS011;32161;48.148;-1.554;2023-03-01T04:12:55;16.70;;;13.27;;
46463;SDS011;32161;48.148;-1.554;2023-03-01T04:15:23;15.70;;;12.38;;
46463;SDS011;32161;48.148;-1.554;2023-03-01T04:17:53;19.70;;;12.90;;
46463;SDS011;32161;48.148;-1.554;2023-03-01T04:20:23;15.90;;;12.27;;
46463;SDS011;32161;48.148;-1.554;2023-03-01T04:22:56;15.02;;;11.60;;
46463;SDS011;32161;48.148;-1.554;2023-03-01T04:25:33;15.80;;;12.23;;
46463;SDS011;32161;48.148;-1.554;2023-03-01T04:28:01;15.77;;;12.80;;
46463;SDS011;32161;48.148;-1.554;2023-03-01T04:30:29;14.20;;;12.05;;
46463;SDS011;32161;48.148;-1.554;2023-03-01T04:35:31;16.58;;;11.88;;
46463;SDS011;32161;48.148;-1.554;2023-03-01T04:37:59;17.38;;;11.82;;
46463;SDS011;32161;48.148;-1.554;2023-03-01T04:40:27;17.63;;;12.95;;
46463;SDS011;32161;48.148;-1.554;2023-03-01T04:42:55;15.93;;;12.00;;
46463;SDS011;32161;48.148;-1.554;2023-03-01T04:45:23;16.10;;;12.20;;
46463;SDS011;32161;48.148;-1.554;2023-03-01T04:47:50;15.02;;;12.23;;
46463;SDS011;32161;48.148;-1.554;2023-03-01T04:50:19;18.08;;;12.20;;
46463;SDS011;32161;48.148;-1.554;2023-03-01T04:52:49;11.63;;;10.45;;
46463;SDS011;32161;48.148;-1.554;2023-03-01T04:55:16;19.98;;;12.52;;
46463;SDS011;32161;48.148;-1.554;2023-03-01T04:57:45;15.02;;;11.55;;
46463;SDS011;32161;48.148;-1.554;2023-03-01T05:00:13;13.63;;;11.27;;
46463;SDS011;32161;48.148;-1.554;2023-03-01T05:02:48;15.27;;;11.88;;
46463;SDS011;32161;48.148;-1.554;2023-03-01T05:05:20;15.60;;;12.00;;
46463;SDS011;32161;48.148;-1.554;2023-03-01T05:07:51;13.80;;;10.98;;
46463;SDS011;32161;48.148;-1.554;2023-03-01T05:10:24;17.38;;;11.90;;
46463;SDS011;32161;48.148;-1.554;2023-03-01T05:12:54;16.63;;;12.00;;
46463;SDS011;32161;48.148;-1.554;2023-03-01T05:15:22;15.98;;;11.45;;
46463;SDS011;32161;48.148;-1.554;2023-03-01T05:17:51;22.80;;;11.75;;
46463;SDS011;32161;48.148;-1.554;2023-03-01T05:20:20;14.63;;;11.18;;
46463;SDS011;32161;48.148;-1.554;2023-03-01T05:22:49;14.20;;;11.38;;
46463;SDS011;32161;48.148;-1.554;2023-03-01T05:25:17;14.10;;;11.95;;
46463;SDS011;32161;48.148;-1.554;2023-03-01T05:27:46;13.93;;;10.90;;
46463;SDS011;32161;48.148;-1.554;2023-03-01T05:30:14;13.82;;;11.75;;
46463;SDS011;32161;48.148;-1.554;2023-03-01T05:32:44;17.02;;;12.20;;
46463;SDS011;32161;48.148;-1.554;2023-03-01T05:35:15;16.23;;;12.35;;
46463;SDS011;32161;48.148;-1.554;2023-03-01T05:37:46;14.63;;;11.38;;
46463;SDS011;32161;48.148;-1.554;2023-03-01T05:40:16;14.82;;;11.77;;
46463;SDS011;32161;48.148;-1.554;2023-03-01T05:42:46;13.88;;;10.90;;
46463;SDS011;32161;48.148;-1.554;2023-03-01T05:45:15;13.40;;;10.98;;
46463;SDS011;32161;48.148;-1.554;2023-03-01T05:47:44;16.45;;;10.50;;
46463;SDS011;32161;48.148;-1.554;2023-03-01T05:50:15;15.45;;;12.20;;
46463;SDS011;32161;48.148;-1.554;2023-03-01T05:52:47;15.55;;;11.95;;
46463;SDS011;32161;48.148;-1.554;2023-03-01T05:55:17;14.95;;;10.95;;
46463;SDS011;32161;48.148;-1.554;2023-03-01T05:57:47;14.55;;;10.98;;
46463;SDS011;32161;48.148;-1.554;2023-03-01T06:00:16;14.45;;;11.15;;
46463;SDS011;32161;48.148;-1.554;2023-03-01T06:02:47;11.93;;;10.52;;
46463;SDS011;32161;48.148;-1.554;2023-03-01T06:05:15;12.30;;;10.43;;
46463;SDS011;32161;48.148;-1.554;2023-03-01T06:07:43;14.43;;;11.02;;
46463;SDS011;32161;48.148;-1.554;2023-03-01T06:10:12;14.45;;;11.05;;
46463;SDS011;32161;48.148;-1.554;2023-03-01T06:12:41;13.13;;;10.95;;
46463;SDS011;32161;48.148;-1.554;2023-03-01T06:15:10;15.50;;;11.32;;
46463;SDS011;32161;48.148;-1.554;2023-03-01T06:17:39;16.25;;;11.60;;
46463;SDS011;32161;48.148;-1.554;2023-03-01T06:20:10;14.95;;;11.27;;
46463;SDS011;32161;48.148;-1.554;2023-03-01T06:25:09;11.45;;;9.90;;
46463;SDS011;32161;48.148;-1.554;2023-03-01T06:27:39;14.98;;;11.40;;
46463;SDS011;32161;48.148;-1.554;2023-03-01T06:30:07;13.50;;;10.15;;
46463;SDS011;32161;48.148;-1.554;2023-03-01T06:32:37;16.33;;;10.65;;
46463;SDS011;32161;48.148;-1.554;2023-03-01T06:35:07;15.50;;;10.52;;
46463;SDS011;32161;48.148;-1.554;2023-03-01T06:37:36;15.45;;;11.40;;
46463;SDS011;32161;48.148;-1.554;2023-03-01T06:40:04;15.05;;;11.60;;
46463;SDS011;32161;48.148;-1.554;2023-03-01T06:42:34;16.63;;;11.13;;
46463;SDS011;32161;48.148;-1.554;2023-03-01T06:45:04;12.52;;;10.40;;
46463;SDS011;32161;48.148;-1.554;2023-03-01T06:47:34;12.55;;;10.70;;
46463;SDS011;32161;48.148;-1.554;2023-03-01T06:50:02;12.80;;;11.18;;
46463;SDS011;32161;48.148;-1.554;2023-03-01T06:52:30;16.67;;;11.50;;
46463;SDS011;32161;48.148;-1.554;2023-03-01T06:54:58;17.60;;;11.05;;
46463;SDS011;32161;48.148;-1.554;2023-03-01T06:57:26;15.93;;;12.15;;
46463;SDS011;32161;48.148;-1.554;2023-03-01T06:59:54;14.23;;;10.70;;
46463;SDS011;32161;48.148;-1.554;2023-03-01T07:02:23;18.63;;;12.27;;
46463;SDS011;32161;48.148;-1.554;2023-03-01T07:04:51;14.65;;;11.40;;
46463;SDS011;32161;48.148;-1.554;2023-03-01T07:07:19;17.35;;;10.95;;
46463;SDS011;32161;48.148;-1.554;2023-03-01T07:09:48;17.13;;;11.55;;
46463;SDS011;32161;48.148;-1.554;2023-03-01T07:12:16;13.43;;;10.95;;
46463;SDS011;32161;48.148;-1.554;2023-03-01T07:14:44;16.05;;;10.93;;
46463;SDS011;32161;48.148;-1.554;2023-03-01T07:17:11;14.20;;;11.32;;
46463;SDS011;32161;48.148;-1.554;2023-03-01T07:19:40;12.43;;;9.55;;
46463;SDS011;32161;48.148;-1.554;2023-03-01T07:22:08;14.13;;;10.77;;
46463;SDS011;32161;48.148;-1.554;2023-03-01T07:24:36;15.45;;;10.98;;
46463;SDS011;32161;48.148;-1.554;2023-03-01T07:27:04;12.63;;;10.20;;
46463;SDS011;32161;48.148;-1.554;2023-03-01T07:29:31;15.25;;;10.60;;
46463;SDS011;32161;48.148;-1.554;2023-03-01T07:32:01;14.23;;;10.15;;
46463;SDS011;32161;48.148;-1.554;2023-03-01T07:34:29;15.40;;;11.18;;
46463;SDS011;32161;48.148;-1.554;2023-03-01T07:37:00;18.42;;;10.93;;
46463;SDS011;32161;48.148;-1.554;2023-03-01T07:39:28;13.35;;;10.40;;
46463;SDS011;32161;48.148;-1.554;2023-03-01T07:41:56;16.38;;;10.63;;
46463;SDS011;32161;48.148;-1.554;2023-03-01T07:44:23;12.40;;;10.18;;
46463;SDS011;32161;48.148;-1.554;2023-03-01T07:46:51;12.75;;;10.07;;
46463;SDS011;32161;48.148;-1.554;2023-03-01T07:49:21;14.18;;;10.85;;
46463;SDS011;32161;48.148;-1.554;2023-03-01T07:51:49;12.88;;;9.80;;
46463;SDS011;32161;48.148;-1.554;2023-03-01T07:54:18;13.70;;;10.43;;
46463;SDS011;32161;48.148;-1.554;2023-03-01T07:56:46;12.93;;;10.43;;
46463;SDS011;32161;48.148;-1.554;2023-03-01T07:59:13;16.73;;;11.65;;
46463;SDS011;32161;48.148;-1.554;2023-03-01T08:01:41;14.00;;;11.18;;
46463;SDS011;32161;48.148;-1.554;2023-03-01T08:04:08;12.98;;;10.48;;
46463;SDS011;32161;48.148;-1.554;2023-03-01T08:06:36;16.58;;;10.77;;
46463;SDS011;32161;48.148;-1.554;2023-03-01T08:09:03;13.27;;;10.57;;
46463;SDS011;32161;48.148;-1.554;2023-03-01T08:11:34;13.30;;;10.38;;
46463;SDS011;32161;48.148;-1.554;2023-03-01T08:14:02;13.82;;;10.68;;
46463;SDS011;32161;48.148;-1.554;2023-03-01T08:16:30;13.63;;;10.25;;
46463;SDS011;32161;48.148;-1.554;2023-03-01T08:19:02;14.15;;;10.40;;
46463;SDS011;32161;48.148;-1.554;2023-03-01T08:21:31;12.82;;;10.68;;
46463;SDS011;32161;48.148;-1.554;2023-03-01T08:24:00;14.80;;;11.05;;
46463;SDS011;32161;48.148;-1.554;2023-03-01T08:26:28;14.27;;;10.95;;
46463;SDS011;32161;48.148;-1.554;2023-03-01T08:28:58;15.73;;;10.63;;
46463;SDS011;32161;48.148;-1.554;2023-03-01T08:31:30;13.27;;;10.25;;
46463;SDS011;32161;48.148;-1.554;2023-03-01T08:34:03;17.63;;;9.85;;
46463;SDS011;32161;48.148;-1.554;2023-03-01T08:36:35;13.35;;;9.68;;
46463;SDS011;32161;48.148;-1.554;2023-03-01T08:39:05;15.70;;;11.18;;
46463;SDS011;32161;48.148;-1.554;2023-03-01T08:41:35;13.05;;;10.40;;
46463;SDS011;32161;48.148;-1.554;2023-03-01T08:44:05;12.27;;;9.80;;
46463;SDS011;32161;48.148;-1.554;2023-03-01T08:46:34;17.33;;;10.57;;
46463;SDS011;32161;48.148;-1.554;2023-03-01T08:49:04;10.38;;;9.23;;
46463;SDS011;32161;48.148;-1.554;2023-03-01T08:51:33;16.70;;;10.35;;
46463;SDS011;32161;48.148;-1.554;2023-03-01T08:54:02;15.07;;;10.55;;
46463;SDS011;32161;48.148;-1.554;2023-03-01T08:56:29;14.77;;;10.07;;
46463;SDS011;32161;48.148;-1.554;2023-03-01T08:58:57;13.50;;;10.90;;
46463;SDS011;32161;48.148;-1.554;2023-03-01T09:01:27;14.48;;;10.88;;
46463;SDS011;32161;48.148;-1.554;2023-03-01T09:03:55;15.20;;;11.20;;
46463;SDS011;32161;48.148;-1.554;2023-03-01T09:06:22;11.95;;;9.90;;
46463;SDS011;32161;48.148;-1.554;2023-03-01T09:08:50;13.02;;;10.40;;
46463;SDS011;32161;48.148;-1.554;2023-03-01T09:11:20;13.43;;;10.80;;
46463;SDS011;32161;48.148;-1.554;2023-03-01T09:13:48;15.35;;;10.82;;
46463;SDS011;32161;48.148;-1.554;2023-03-01T09:16:17;13.75;;;10.88;;
46463;SDS011;32161;48.148;-1.554;2023-03-01T09:18:49;12.60;;;10.43;;
46463;SDS011;32161;48.148;-1.554;2023-03-01T09:21:18;22.83;;;11.02;;
46463;SDS011;32161;48.148;-1.554;2023-03-01T09:23:48;13.40;;;10.90;;
46463;SDS011;32161;48.148;-1.554;2023-03-01T09:26:17;14.93;;;11.30;;
46463;SDS011;32161;48.148;-1.554;2023-03-01T09:28:47;16.58;;;10.80;;
46463;SDS011;32161;48.148;-1.554;2023-03-01T09:31:17;13.32;;;10.48;;
46463;SDS011;32161;48.148;-1.554;2023-03-01T09:33:47;13.73;;;10.45;;
46463;SDS011;32161;48.148;-1.554;2023-03-01T09:36:19;13.32;;;10.65;;
46463;SDS011;32161;48.148;-1.554;2023-03-01T09:38:49;17.50;;;11.93;;
46463;SDS011;32161;48.148;-1.554;2023-03-01T09:41:22;15.07;;;10.55;;
46463;SDS011;32161;48.148;-1.554;2023-03-01T09:44:05;15.80;;;11.95;;
46463;SDS011;32161;48.148;-1.554;2023-03-01T09:46:45;16.85;;;11.13;;
46463;SDS011;32161;48.148;-1.554;2023-03-01T09:49:16;14.80;;;11.15;;
46463;SDS011;32161;48.148;-1.554;2023-03-01T09:51:50;16.00;;;11.18;;
46463;SDS011;32161;48.148;-1.554;2023-03-01T09:54:24;17.05;;;12.20;;
46463;SDS011;32161;48.148;-1.554;2023-03-01T09:56:59;19.02;;;11.10;;
46463;SDS011;32161;48.148;-1.554;2023-03-01T09:59:55;14.95;;;11.63;;
46463;SDS011;32161;48.148;-1.554;2023-03-01T10:02:49;17.10;;;11.75;;
46463;SDS011;32161;48.148;-1.554;2023-03-01T10:05:29;18.02;;;12.18;;
46463;SDS011;32161;48.148;-1.554;2023-03-01T10:11:14;16.02;;;11.13;;
46463;SDS011;32161;48.148;-1.554;2023-03-01T10:13:50;16.92;;;12.10;;
46463;SDS011;32161;48.148;-1.554;2023-03-01T10:16:26;15.75;;;12.13;;
46463;SDS011;32161;48.148;-1.554;2023-03-01T10:19:04;18.38;;;12.60;;
46463;SDS011;32161;48.148;-1.554;2023-03-01T10:21:41;20.27;;;11.80;;
46463;SDS011;32161;48.148;-1.554;2023-03-01T10:24:13;16.80;;;11.60;;
46463;SDS011;32161;48.148;-1.554;2023-03-01T10:26:47;15.80;;;11.82;;
46463;SDS011;32161;48.148;-1.554;2023-03-01T10:29:22;16.17;;;12.05;;
46463;SDS011;32161;48.148;-1.554;2023-03-01T10:31:56;15.43;;;12.57;;
46463;SDS011;32161;48.148;-1.554;2023-03-01T10:34:27;15.43;;;11.73;;
46463;SDS011;32161;48.148;-1.554;2023-03-01T10:37:00;15.38;;;11.00;;
46463;SDS011;32161;48.148;-1.554;2023-03-01T10:39:36;16.55;;;11.63;;
46463;SDS011;32161;48.148;-1.554;2023-03-01T10:42:22;18.63;;;13.00;;
46463;SDS011;32161;48.148;-1.554;2023-03-01T10:44:55;16.10;;;12.25;;
46463;SDS011;32161;48.148;-1.554;2023-03-01T10:47:24;16.42;;;11.88;;
46463;SDS011;32161;48.148;-1.554;2023-03-01T10:49:57;17.48;;;12.88;;
46463;SDS011;32161;48.148;-1.554;2023-03-01T10:52:30;14.65;;;12.57;;
46463;SDS011;32161;48.148;-1.554;2023-03-01T10:55:01;19.60;;;13.23;;
46463;SDS011;32161;48.148;-1.554;2023-03-01T10:57:49;19.40;;;12.65;;
46463;SDS011;32161;48.148;-1.554;2023-03-01T11:00:32;17.63;;;13.30;;
46463;SDS011;32161;48.148;-1.554;2023-03-01T11:03:10;20.33;;;13.10;;
46463;SDS011;32161;48.148;-1.554;2023-03-01T11:05:53;16.25;;;12.70;;
46463;SDS011;32161;48.148;-1.554;2023-03-01T11:08:48;19.50;;;13.43;;
46463;SDS011;32161;48.148;-1.554;2023-03-01T11:11:26;18.65;;;14.40;;
46463;SDS011;32161;48.148;-1.554;2023-03-01T11:13:58;20.70;;;13.02;;
46463;SDS011;32161;48.148;-1.554;2023-03-01T11:16:32;19.23;;;14.27;;
46463;SDS011;32161;48.148;-1.554;2023-03-01T11:21:52;26.20;;;14.27;;
46463;SDS011;32161;48.148;-1.554;2023-03-01T11:24:32;20.27;;;12.43;;
46463;SDS011;32161;48.148;-1.554;2023-03-01T11:27:11;15.55;;;13.18;;
46463;SDS011;32161;48.148;-1.554;2023-03-01T11:29:46;15.75;;;12.32;;
46463;SDS011;32161;48.148;-1.554;2023-03-01T11:32:20;16.55;;;13.32;;
46463;SDS011;32161;48.148;-1.554;2023-03-01T11:34:54;16.58;;;13.55;;
46463;SDS011;32161;48.148;-1.554;2023-03-01T11:37:32;15.25;;;13.02;;
46463;SDS011;32161;48.148;-1.554;2023-03-01T11:40:15;18.50;;;12.82;;
46463;SDS011;32161;48.148;-1.554;2023-03-01T11:42:54;16.98;;;12.70;;
46463;SDS011;32161;48.148;-1.554;2023-03-01T11:45:39;16.77;;;13.63;;
46463;SDS011;32161;48.148;-1.554;2023-03-01T11:48:30;18.23;;;13.73;;
46463;SDS011;32161;48.148;-1.554;2023-03-01T11:51:24;14.15;;;12.35;;
46463;SDS011;32161;48.148;-1.554;2023-03-01T11:54:06;18.02;;;12.15;;
46463;SDS011;32161;48.148;-1.554;2023-03-01T11:56:49;15.30;;;12.70;;
46463;SDS011;32161;48.148;-1.554;2023-03-01T11:59:28;19.15;;;13.18;;
46463;SDS011;32161;48.148;-1.554;2023-03-01T12:05:54;17.90;;;13.05;;
46463;SDS011;32161;48.148;-1.554;2023-03-01T12:09:11;17.55;;;13.80;;
46463;SDS011;32161;48.148;-1.554;2023-03-01T12:12:03;16.83;;;13.40;;
46463;SDS011;32161;48.148;-1.554;2023-03-01T12:15:03;15.70;;;13.25;;
46463;SDS011;32161;48.148;-1.554;2023-03-01T12:21:29;17.25;;;13.15;;
46463;SDS011;32161;48.148;-1.554;2023-03-01T12:24:23;16.65;;;12.43;;
46463;SDS011;32161;48.148;-1.554;2023-03-01T12:27:34;18.55;;;13.30;;
46463;SDS011;32161;48.148;-1.554;2023-03-01T12:30:30;15.50;;;11.90;;
46463;SDS011;32161;48.148;-1.554;2023-03-01T12:33:13;13.15;;;11.60;;
46463;SDS011;32161;48.148;-1.554;2023-03-01T12:36:04;15.93;;;12.27;;
46463;SDS011;32161;48.148;-1.554;2023-03-01T12:38:49;13.50;;;11.85;;
46463;SDS011;32161;48.148;-1.554;2023-03-01T12:44:27;12.68;;;10.55;;
46463;SDS011;32161;48.148;-1.554;2023-03-01T12:47:39;12.15;;;10.05;;
46463;SDS011;32161;48.148;-1.554;2023-03-01T12:50:23;10.68;;;9.55;;
46463;SDS011;32161;48.148;-1.554;2023-03-01T12:52:57;10.52;;;8.93;;
46463;SDS011;32161;48.148;-1.554;2023-03-01T12:55:27;12.20;;;9.48;;
46463;SDS011;32161;48.148;-1.554;2023-03-01T12:58:01;9.40;;;8.52;;
46463;SDS011;32161;48.148;-1.554;2023-03-01T13:00:45;8.80;;;7.70;;
46463;SDS011;32161;48.148;-1.554;2023-03-01T13:03:29;11.00;;;8.80;;
46463;SDS011;32161;48.148;-1.554;2023-03-01T13:06:08;14.60;;;9.68;;
46463;SDS011;32161;48.148;-1.554;2023-03-01T13:08:46;9.48;;;8.57;;
46463;SDS011;32161;48.148;-1.554;2023-03-01T13:11:22;10.43;;;9.10;;
46463;SDS011;32161;48.148;-1.554;2023-03-01T13:13:50;9.65;;;8.60;;
46463;SDS011;32161;48.148;-1.554;2023-03-01T13:17:04;10.07;;;7.75;;
46463;SDS011;32161;48.148;-1.554;2023-03-01T13:19:56;10.63;;;8.95;;
46463;SDS011;32161;48.148;-1.554;2023-03-01T13:22:26;9.65;;;8.65;;
46463;SDS011;32161;48.148;-1.554;2023-03-01T13:25:01;10.40;;;8.38;;
46463;SDS011;32161;48.148;-1.554;2023-03-01T13:27:39;9.70;;;8.70;;
46463;SDS011;32161;48.148;-1.554;2023-03-01T13:30:37;10.55;;;8.27;;
46463;SDS011;32161;48.148;-1.554;2023-03-01T13:36:09;9.52;;;8.63;;
46463;SDS011;32161;48.148;-1.554;2023-03-01T13:39:01;9.07;;;8.02;;
46463;SDS011;32161;48.148;-1.554;2023-03-01T13:41:50;9.20;;;7.75;;
46463;SDS011;32161;48.148;-1.554;2023-03-01T13:44:24;8.70;;;6.85;;
46463;SDS011;32161;48.148;-1.554;2023-03-01T13:46:57;10.07;;;6.32;;
46463;SDS011;32161;48.148;-1.554;2023-03-01T13:49:33;8.20;;;6.93;;
46463;SDS011;32161;48.148;-1.554;2023-03-01T13:52:20;7.05;;;6.45;;
46463;SDS011;32161;48.148;-1.554;2023-03-01T13:55:06;7.80;;;7.00;;
46463;SDS011;32161;48.148;-1.554;2023-03-01T13:57:46;10.55;;;7.25;;
46463;SDS011;32161;48.148;-1.554;2023-03-01T14:00:25;6.78;;;6.18;;
46463;SDS011;32161;48.148;-1.554;2023-03-01T14:03:11;7.55;;;6.85;;
46463;SDS011;32161;48.148;-1.554;2023-03-01T14:05:43;7.38;;;6.70;;
46463;SDS011;32161;48.148;-1.554;2023-03-01T14:08:26;7.55;;;6.20;;
46463;SDS011;32161;48.148;-1.554;2023-03-01T14:17:09;6.60;;;6.00;;
46463;SDS011;32161;48.148;-1.554;2023-03-01T14:19:59;11.80;;;6.70;;
46463;SDS011;32161;48.148;-1.554;2023-03-01T14:22:32;5.78;;;5.28;;
46463;SDS011;32161;48.148;-1.554;2023-03-01T14:25:03;5.57;;;4.85;;
46463;SDS011;32161;48.148;-1.554;2023-03-01T14:27:43;5.75;;;5.20;;
46463;SDS011;32161;48.148;-1.554;2023-03-01T14:30:18;5.90;;;5.30;;
46463;SDS011;32161;48.148;-1.554;2023-03-01T14:32:52;5.82;;;5.22;;
46463;SDS011;32161;48.148;-1.554;2023-03-01T14:35:23;5.65;;;5.10;;
46463;SDS011;32161;48.148;-1.554;2023-03-01T14:40:24;6.43;;;5.78;;
46463;SDS011;32161;48.148;-1.554;2023-03-01T14:42:55;7.85;;;5.45;;
46463;SDS011;32161;48.148;-1.554;2023-03-01T14:45:27;6.97;;;6.25;;
46463;SDS011;32161;48.148;-1.554;2023-03-01T14:47:58;10.07;;;6.13;;
46463;SDS011;32161;48.148;-1.554;2023-03-01T14:50:28;8.25;;;7.20;;
46463;SDS011;32161;48.148;-1.554;2023-03-01T14:53:00;9.55;;;7.95;;
46463;SDS011;32161;48.148;-1.554;2023-03-01T14:55:31;9.60;;;8.48;;
46463;SDS011;32161;48.148;-1.554;2023-03-01T14:58:04;10.68;;;8.30;;
46463;SDS011;32161;48.148;-1.554;2023-03-01T15:00:38;10.48;;;8.20;;
46463;SDS011;32161;48.148;-1.554;2023-03-01T15:03:14;8.95;;;8.05;;
46463;SDS011;32161;48.148;-1.554;2023-03-01T15:05:51;13.02;;;9.60;;
46463;SDS011;32161;48.148;-1.554;2023-03-01T15:08:22;12.50;;;9.60;;
46463;SDS011;32161;48.148;-1.554;2023-03-01T15:10:59;14.02;;;10.13;;
46463;SDS011;32161;48.148;-1.554;2023-03-01T15:13:31;11.30;;;9.45;;
46463;SDS011;32161;48.148;-1.554;2023-03-01T15:16:07;9.93;;;9.03;;
46463;SDS011;32161;48.148;-1.554;2023-03-01T15:18:37;12.93;;;9.77;;
46463;SDS011;32161;48.148;-1.554;2023-03-01T15:21:15;13.32;;;9.90;;
46463;SDS011;32161;48.148;-1.554;2023-03-01T15:23:50;10.82;;;9.70;;
46463;SDS011;32161;48.148;-1.554;2023-03-01T15:26:21;14.00;;;9.82;;